sensor_id;sensor_type;location;lat;lon;timestamp;P1;durP1;ratioP1;P2;durP2;ratioP2
19671;SDS011;9983;51.114;13.788;2022-07-18T00:03:44;3.80;;;2.03;;
19671;SDS011;9983;51.114;13.788;2022-07-18T00:08:44;3.30;;;1.80;;
19671;SDS011;9983;51.114;13.788;2022-07-18T00:13:44;6.63;;;1.73;;
19671;SDS011;9983;51.114;13.788;2022-07-18T00:18:44;2.15;;;1.83;;
19671;SDS011;9983;51.114;13.788;2022-07-18T00:23:45;3.90;;;1.80;;
19671;SDS011;9983;51.114;13.788;2022-07-18T00:28:45;3.03;;;1.92;;
19671;SDS011;9983;51.114;13.788;2022-07-18T00:33:45;2.50;;;2.17;;
19671;SDS011;9983;51.114;13.788;2022-07-18T00:38:45;2.10;;;1.70;;
19671;SDS011;9983;51.114;13.788;2022-07-18T00:43:45;2.28;;;2.08;;
19671;SDS011;9983;51.114;13.788;2022-07-18T00:48:46;4.78;;;2.40;;
19671;SDS011;9983;51.114;13.788;2022-07-18T00:53:46;6.15;;;2.22;;
19671;SDS011;9983;51.114;13.788;2022-07-18T00:58:47;3.70;;;2.20;;
19671;SDS011;9983;51.114;13.788;2022-07-18T01:03:47;6.18;;;2.63;;
19671;SDS011;9983;51.114;13.788;2022-07-18T01:08:47;2.22;;;2.03;;
19671;SDS011;9983;51.114;13.788;2022-07-18T01:13:48;2.83;;;2.53;;
19671;SDS011;9983;51.114;13.788;2022-07-18T01:18:49;3.58;;;2.05;;
19671;SDS011;9983;51.114;13.788;2022-07-18T01:23:49;2.42;;;2.00;;
19671;SDS011;9983;51.114;13.788;2022-07-18T01:28:50;2.55;;;1.90;;
19671;SDS011;9983;51.114;13.788;2022-07-18T01:33:53;3.65;;;2.00;;
19671;SDS011;9983;51.114;13.788;2022-07-18T01:38:53;2.30;;;2.10;;
19671;SDS011;9983;51.114;13.788;2022-07-18T01:43:53;2.33;;;1.85;;
19671;SDS011;9983;51.114;13.788;2022-07-18T01:48:53;2.30;;;2.10;;
19671;SDS011;9983;51.114;13.788;2022-07-18T01:53:54;2.53;;;2.00;;
19671;SDS011;9983;51.114;13.788;2022-07-18T01:58:55;2.20;;;2.00;;
19671;SDS011;9983;51.114;13.788;2022-07-18T02:03:56;3.95;;;2.22;;
19671;SDS011;9983;51.114;13.788;2022-07-18T02:08:56;2.72;;;2.13;;
19671;SDS011;9983;51.114;13.788;2022-07-18T02:13:57;2.38;;;1.95;;
19671;SDS011;9983;51.114;13.788;2022-07-18T02:18:57;2.00;;;1.73;;
19671;SDS011;9983;51.114;13.788;2022-07-18T02:23:57;3.63;;;2.20;;
19671;SDS011;9983;51.114;13.788;2022-07-18T02:28:57;2.35;;;2.13;;
19671;SDS011;9983;51.114;13.788;2022-07-18T02:33:57;2.22;;;2.00;;
19671;SDS011;9983;51.114;13.788;2022-07-18T02:38:57;3.17;;;2.17;;
19671;SDS011;9983;51.114;13.788;2022-07-18T02:43:57;2.88;;;2.08;;
19671;SDS011;9983;51.114;13.788;2022-07-18T02:48:58;2.10;;;1.80;;
19671;SDS011;9983;51.114;13.788;2022-07-18T02:53:58;2.13;;;1.80;;
19671;SDS011;9983;51.114;13.788;2022-07-18T02:58:58;4.35;;;2.38;;
19671;SDS011;9983;51.114;13.788;2022-07-18T03:03:58;2.20;;;2.00;;
19671;SDS011;9983;51.114;13.788;2022-07-18T03:09:00;2.28;;;2.08;;
19671;SDS011;9983;51.114;13.788;2022-07-18T03:14:00;1.92;;;1.83;;
19671;SDS011;9983;51.114;13.788;2022-07-18T03:19:01;3.33;;;2.03;;
19671;SDS011;9983;51.114;13.788;2022-07-18T03:24:01;2.72;;;1.98;;
19671;SDS011;9983;51.114;13.788;2022-07-18T03:29:01;2.92;;;2.22;;
19671;SDS011;9983;51.114;13.788;2022-07-18T03:34:01;3.50;;;2.20;;
19671;SDS011;9983;51.114;13.788;2022-07-18T03:39:02;2.15;;;1.92;;
19671;SDS011;9983;51.114;13.788;2022-07-18T03:44:03;5.32;;;2.40;;
19671;SDS011;9983;51.114;13.788;2022-07-18T03:49:03;2.95;;;2.20;;
19671;SDS011;9983;51.114;13.788;2022-07-18T03:54:03;2.28;;;2.08;;
19671;SDS011;9983;51.114;13.788;2022-07-18T03:59:03;2.78;;;2.20;;
19671;SDS011;9983;51.114;13.788;2022-07-18T04:04:04;5.80;;;2.40;;
19671;SDS011;9983;51.114;13.788;2022-07-18T04:09:04;4.80;;;2.50;;
19671;SDS011;9983;51.114;13.788;2022-07-18T04:14:05;2.50;;;1.90;;
19671;SDS011;9983;51.114;13.788;2022-07-18T04:19:05;3.03;;;1.93;;
19671;SDS011;9983;51.114;13.788;2022-07-18T04:24:05;4.43;;;2.05;;
19671;SDS011;9983;51.114;13.788;2022-07-18T04:29:05;2.30;;;2.10;;
19671;SDS011;9983;51.114;13.788;2022-07-18T04:34:05;2.75;;;1.90;;
19671;SDS011;9983;51.114;13.788;2022-07-18T04:39:05;2.97;;;1.90;;
19671;SDS011;9983;51.114;13.788;2022-07-18T04:44:06;2.22;;;2.08;;
19671;SDS011;9983;51.114;13.788;2022-07-18T04:49:06;2.30;;;1.90;;
19671;SDS011;9983;51.114;13.788;2022-07-18T04:54:06;4.35;;;2.15;;
19671;SDS011;9983;51.114;13.788;2022-07-18T04:59:08;3.63;;;2.30;;
19671;SDS011;9983;51.114;13.788;2022-07-18T05:04:08;2.05;;;1.85;;
19671;SDS011;9983;51.114;13.788;2022-07-18T05:09:08;3.15;;;2.20;;
19671;SDS011;9983;51.114;13.788;2022-07-18T05:14:08;3.63;;;2.80;;
19671;SDS011;9983;51.114;13.788;2022-07-18T05:19:08;5.47;;;3.33;;
19671;SDS011;9983;51.114;13.788;2022-07-18T05:24:09;6.13;;;3.80;;
19671;SDS011;9983;51.114;13.788;2022-07-18T05:29:09;5.00;;;4.00;;
19671;SDS011;9983;51.114;13.788;2022-07-18T05:34:09;3.92;;;3.53;;
19671;SDS011;9983;51.114;13.788;2022-07-18T05:39:09;7.70;;;3.70;;
19671;SDS011;9983;51.114;13.788;2022-07-18T05:44:10;12.52;;;3.65;;
19671;SDS011;9983;51.114;13.788;2022-07-18T05:49:10;7.60;;;3.28;;
19671;SDS011;9983;51.114;13.788;2022-07-18T05:54:10;6.03;;;4.15;;
19671;SDS011;9983;51.114;13.788;2022-07-18T05:59:10;8.40;;;6.18;;
19671;SDS011;9983;51.114;13.788;2022-07-18T06:04:10;9.00;;;5.70;;
19671;SDS011;9983;51.114;13.788;2022-07-18T06:09:10;9.23;;;6.00;;
19671;SDS011;9983;51.114;13.788;2022-07-18T06:14:12;10.30;;;5.30;;
19671;SDS011;9983;51.114;13.788;2022-07-18T06:19:12;9.00;;;5.68;;
19671;SDS011;9983;51.114;13.788;2022-07-18T06:24:12;5.55;;;4.68;;
19671;SDS011;9983;51.114;13.788;2022-07-18T06:29:12;5.80;;;4.22;;
19671;SDS011;9983;51.114;13.788;2022-07-18T06:34:13;5.10;;;2.88;;
19671;SDS011;9983;51.114;13.788;2022-07-18T06:39:13;5.18;;;2.60;;
19671;SDS011;9983;51.114;13.788;2022-07-18T06:44:16;3.58;;;2.30;;
19671;SDS011;9983;51.114;13.788;2022-07-18T06:49:16;5.15;;;2.60;;
19671;SDS011;9983;51.114;13.788;2022-07-18T06:54:16;6.53;;;3.20;;
19671;SDS011;9983;51.114;13.788;2022-07-18T06:59:17;7.97;;;2.90;;
19671;SDS011;9983;51.114;13.788;2022-07-18T07:04:17;5.75;;;2.47;;
19671;SDS011;9983;51.114;13.788;2022-07-18T07:09:17;4.05;;;2.10;;
19671;SDS011;9983;51.114;13.788;2022-07-18T07:14:17;4.22;;;2.13;;
19671;SDS011;9983;51.114;13.788;2022-07-18T07:19:17;6.47;;;2.20;;
19671;SDS011;9983;51.114;13.788;2022-07-18T07:24:17;3.55;;;2.45;;
19671;SDS011;9983;51.114;13.788;2022-07-18T07:29:17;5.60;;;2.10;;
19671;SDS011;9983;51.114;13.788;2022-07-18T07:34:18;5.30;;;2.10;;
19671;SDS011;9983;51.114;13.788;2022-07-18T07:39:18;4.53;;;2.17;;
19671;SDS011;9983;51.114;13.788;2022-07-18T07:44:18;4.95;;;1.92;;
19671;SDS011;9983;51.114;13.788;2022-07-18T07:49:18;4.43;;;1.98;;
19671;SDS011;9983;51.114;13.788;2022-07-18T07:54:18;4.97;;;1.70;;
19671;SDS011;9983;51.114;13.788;2022-07-18T07:59:18;4.20;;;1.38;;
19671;SDS011;9983;51.114;13.788;2022-07-18T08:04:18;1.77;;;1.48;;
19671;SDS011;9983;51.114;13.788;2022-07-18T08:09:18;3.10;;;1.20;;
19671;SDS011;9983;51.114;13.788;2022-07-18T08:14:19;5.45;;;1.77;;
19671;SDS011;9983;51.114;13.788;2022-07-18T08:19:19;3.93;;;1.90;;
19671;SDS011;9983;51.114;13.788;2022-07-18T08:24:19;3.65;;;1.77;;
19671;SDS011;9983;51.114;13.788;2022-07-18T08:29:19;4.57;;;1.73;;
19671;SDS011;9983;51.114;13.788;2022-07-18T08:34:19;7.15;;;2.33;;
19671;SDS011;9983;51.114;13.788;2022-07-18T08:39:19;5.38;;;1.80;;
19671;SDS011;9983;51.114;13.788;2022-07-18T08:44:20;2.33;;;1.60;;
19671;SDS011;9983;51.114;13.788;2022-07-18T08:49:20;4.00;;;1.90;;
19671;SDS011;9983;51.114;13.788;2022-07-18T08:54:20;4.50;;;1.90;;
19671;SDS011;9983;51.114;13.788;2022-07-18T08:59:21;2.00;;;1.33;;
19671;SDS011;9983;51.114;13.788;2022-07-18T09:04:34;4.67;;;1.47;;
19671;SDS011;9983;51.114;13.788;2022-07-18T09:09:35;3.25;;;1.60;;
19671;SDS011;9983;51.114;13.788;2022-07-18T09:19:36;3.63;;;1.60;;
19671;SDS011;9983;51.114;13.788;2022-07-18T09:24:56;2.33;;;1.60;;
19671;SDS011;9983;51.114;13.788;2022-07-18T09:35:10;2.63;;;1.70;;
19671;SDS011;9983;51.114;13.788;2022-07-18T09:45:14;8.07;;;1.88;;
19671;SDS011;9983;51.114;13.788;2022-07-18T09:50:21;2.08;;;1.60;;
19671;SDS011;9983;51.114;13.788;2022-07-18T09:55:21;6.78;;;1.65;;
19671;SDS011;9983;51.114;13.788;2022-07-18T10:00:22;3.65;;;1.70;;
19671;SDS011;9983;51.114;13.788;2022-07-18T10:05:22;3.90;;;1.50;;
19671;SDS011;9983;51.114;13.788;2022-07-18T10:10:23;3.03;;;1.70;;
19671;SDS011;9983;51.114;13.788;2022-07-18T10:15:27;3.83;;;1.58;;
19671;SDS011;9983;51.114;13.788;2022-07-18T10:20:32;2.03;;;1.50;;
19671;SDS011;9983;51.114;13.788;2022-07-18T10:25:33;2.55;;;1.63;;
19671;SDS011;9983;51.114;13.788;2022-07-18T10:30:34;1.83;;;1.60;;
19671;SDS011;9983;51.114;13.788;2022-07-18T10:41:04;5.55;;;1.90;;
19671;SDS011;9983;51.114;13.788;2022-07-18T10:46:05;2.25;;;1.40;;
19671;SDS011;9983;51.114;13.788;2022-07-18T10:56:05;3.70;;;1.90;;
19671;SDS011;9983;51.114;13.788;2022-07-18T11:01:06;2.05;;;1.80;;
19671;SDS011;9983;51.114;13.788;2022-07-18T11:06:09;2.35;;;1.35;;
19671;SDS011;9983;51.114;13.788;2022-07-18T11:11:09;4.25;;;1.75;;
19671;SDS011;9983;51.114;13.788;2022-07-18T11:21:21;5.63;;;2.10;;
19671;SDS011;9983;51.114;13.788;2022-07-18T11:26:23;3.78;;;1.80;;
19671;SDS011;9983;51.114;13.788;2022-07-18T11:31:23;2.30;;;1.50;;
19671;SDS011;9983;51.114;13.788;2022-07-18T11:36:28;1.98;;;1.60;;
19671;SDS011;9983;51.114;13.788;2022-07-18T11:41:30;4.13;;;1.67;;
19671;SDS011;9983;51.114;13.788;2022-07-18T11:46:30;2.20;;;1.97;;
19671;SDS011;9983;51.114;13.788;2022-07-18T11:51:39;2.50;;;2.00;;
19671;SDS011;9983;51.114;13.788;2022-07-18T11:56:46;4.63;;;2.05;;
19671;SDS011;9983;51.114;13.788;2022-07-18T12:01:47;3.55;;;1.90;;
19671;SDS011;9983;51.114;13.788;2022-07-18T12:12:14;3.58;;;1.85;;
19671;SDS011;9983;51.114;13.788;2022-07-18T12:17:15;2.67;;;1.42;;
19671;SDS011;9983;51.114;13.788;2022-07-18T12:22:15;2.63;;;1.95;;
19671;SDS011;9983;51.114;13.788;2022-07-18T12:27:25;1.80;;;1.70;;
19671;SDS011;9983;51.114;13.788;2022-07-18T12:32:26;1.90;;;1.80;;
19671;SDS011;9983;51.114;13.788;2022-07-18T12:37:26;1.88;;;1.77;;
19671;SDS011;9983;51.114;13.788;2022-07-18T12:42:28;1.88;;;1.67;;
19671;SDS011;9983;51.114;13.788;2022-07-18T12:47:29;2.53;;;2.00;;
19671;SDS011;9983;51.114;13.788;2022-07-18T12:52:29;2.50;;;2.00;;
19671;SDS011;9983;51.114;13.788;2022-07-18T12:57:29;3.38;;;1.58;;
19671;SDS011;9983;51.114;13.788;2022-07-18T13:02:29;2.38;;;1.77;;
19671;SDS011;9983;51.114;13.788;2022-07-18T13:07:30;3.45;;;1.70;;
19671;SDS011;9983;51.114;13.788;2022-07-18T13:12:30;3.20;;;1.73;;
19671;SDS011;9983;51.114;13.788;2022-07-18T13:17:30;2.63;;;2.10;;
19671;SDS011;9983;51.114;13.788;2022-07-18T13:22:30;3.45;;;1.70;;
19671;SDS011;9983;51.114;13.788;2022-07-18T13:27:37;2.28;;;1.45;;
19671;SDS011;9983;51.114;13.788;2022-07-18T13:32:37;1.90;;;1.70;;
19671;SDS011;9983;51.114;13.788;2022-07-18T13:37:37;2.58;;;1.73;;
19671;SDS011;9983;51.114;13.788;2022-07-18T13:42:37;2.72;;;2.00;;
19671;SDS011;9983;51.114;13.788;2022-07-18T13:47:37;1.90;;;1.75;;
19671;SDS011;9983;51.114;13.788;2022-07-18T13:52:38;1.80;;;1.48;;
19671;SDS011;9983;51.114;13.788;2022-07-18T13:57:38;2.72;;;1.90;;
19671;SDS011;9983;51.114;13.788;2022-07-18T14:02:39;2.45;;;1.77;;
19671;SDS011;9983;51.114;13.788;2022-07-18T14:07:39;2.05;;;1.60;;
19671;SDS011;9983;51.114;13.788;2022-07-18T14:12:39;1.60;;;1.50;;
19671;SDS011;9983;51.114;13.788;2022-07-18T14:17:40;2.20;;;1.67;;
19671;SDS011;9983;51.114;13.788;2022-07-18T14:22:41;1.67;;;1.58;;
19671;SDS011;9983;51.114;13.788;2022-07-18T14:27:41;1.67;;;1.58;;
19671;SDS011;9983;51.114;13.788;2022-07-18T14:32:41;2.40;;;1.77;;
19671;SDS011;9983;51.114;13.788;2022-07-18T14:37:42;2.00;;;1.60;;
19671;SDS011;9983;51.114;13.788;2022-07-18T14:42:42;2.10;;;2.00;;
19671;SDS011;9983;51.114;13.788;2022-07-18T14:47:42;2.35;;;1.70;;
19671;SDS011;9983;51.114;13.788;2022-07-18T14:52:42;3.58;;;1.85;;
19671;SDS011;9983;51.114;13.788;2022-07-18T14:57:43;1.75;;;1.65;;
19671;SDS011;9983;51.114;13.788;2022-07-18T15:02:43;2.00;;;1.90;;
19671;SDS011;9983;51.114;13.788;2022-07-18T15:07:43;2.70;;;1.73;;
19671;SDS011;9983;51.114;13.788;2022-07-18T15:12:43;1.80;;;1.70;;
19671;SDS011;9983;51.114;13.788;2022-07-18T15:17:43;2.47;;;1.92;;
19671;SDS011;9983;51.114;13.788;2022-07-18T15:22:44;3.33;;;1.85;;
19671;SDS011;9983;51.114;13.788;2022-07-18T15:27:44;4.25;;;1.95;;
19671;SDS011;9983;51.114;13.788;2022-07-18T15:32:44;2.20;;;1.70;;
19671;SDS011;9983;51.114;13.788;2022-07-18T15:37:44;3.20;;;1.58;;
19671;SDS011;9983;51.114;13.788;2022-07-18T15:42:44;3.25;;;1.60;;
19671;SDS011;9983;51.114;13.788;2022-07-18T15:47:45;2.53;;;1.95;;
19671;SDS011;9983;51.114;13.788;2022-07-18T15:52:45;3.20;;;1.83;;
19671;SDS011;9983;51.114;13.788;2022-07-18T15:57:45;2.35;;;1.70;;
19671;SDS011;9983;51.114;13.788;2022-07-18T16:02:45;2.15;;;1.70;;
19671;SDS011;9983;51.114;13.788;2022-07-18T16:07:45;2.35;;;2.15;;
19671;SDS011;9983;51.114;13.788;2022-07-18T16:12:45;3.35;;;2.00;;
19671;SDS011;9983;51.114;13.788;2022-07-18T16:17:46;2.22;;;1.70;;
19671;SDS011;9983;51.114;13.788;2022-07-18T16:22:46;2.05;;;1.88;;
19671;SDS011;9983;51.114;13.788;2022-07-18T16:27:46;3.05;;;1.70;;
19671;SDS011;9983;51.114;13.788;2022-07-18T16:32:47;3.42;;;1.70;;
19671;SDS011;9983;51.114;13.788;2022-07-18T16:37:47;3.75;;;1.90;;
19671;SDS011;9983;51.114;13.788;2022-07-18T16:42:48;4.30;;;3.70;;
19671;SDS011;9983;51.114;13.788;2022-07-18T16:47:48;2.55;;;1.88;;
19671;SDS011;9983;51.114;13.788;2022-07-18T16:52:48;2.92;;;1.70;;
19671;SDS011;9983;51.114;13.788;2022-07-18T16:57:48;2.65;;;1.83;;
19671;SDS011;9983;51.114;13.788;2022-07-18T17:02:49;2.47;;;2.00;;
19671;SDS011;9983;51.114;13.788;2022-07-18T17:07:49;3.03;;;2.22;;
19671;SDS011;9983;51.114;13.788;2022-07-18T17:12:49;2.00;;;1.75;;
19671;SDS011;9983;51.114;13.788;2022-07-18T17:17:50;2.45;;;1.75;;
19671;SDS011;9983;51.114;13.788;2022-07-18T17:22:52;2.83;;;1.83;;
19671;SDS011;9983;51.114;13.788;2022-07-18T17:27:54;1.77;;;1.67;;
19671;SDS011;9983;51.114;13.788;2022-07-18T17:32:54;2.33;;;1.77;;
19671;SDS011;9983;51.114;13.788;2022-07-18T17:37:54;1.60;;;1.47;;
19671;SDS011;9983;51.114;13.788;2022-07-18T17:42:55;2.13;;;1.65;;
19671;SDS011;9983;51.114;13.788;2022-07-18T17:47:55;2.88;;;1.88;;
19671;SDS011;9983;51.114;13.788;2022-07-18T17:52:56;2.97;;;2.20;;
19671;SDS011;9983;51.114;13.788;2022-07-18T17:57:56;2.08;;;1.67;;
19671;SDS011;9983;51.114;13.788;2022-07-18T18:02:56;2.55;;;1.58;;
19671;SDS011;9983;51.114;13.788;2022-07-18T18:07:56;2.28;;;1.85;;
19671;SDS011;9983;51.114;13.788;2022-07-18T18:12:58;3.42;;;2.13;;
19671;SDS011;9983;51.114;13.788;2022-07-18T18:17:59;2.53;;;1.75;;
19671;SDS011;9983;51.114;13.788;2022-07-18T18:22:59;3.70;;;1.65;;
19671;SDS011;9983;51.114;13.788;2022-07-18T18:28:02;8.40;;;2.30;;
19671;SDS011;9983;51.114;13.788;2022-07-18T18:33:02;31.90;;;4.00;;
19671;SDS011;9983;51.114;13.788;2022-07-18T18:38:02;16.33;;;2.55;;
19671;SDS011;9983;51.114;13.788;2022-07-18T18:43:03;2.55;;;1.67;;
19671;SDS011;9983;51.114;13.788;2022-07-18T18:48:03;2.45;;;1.73;;
19671;SDS011;9983;51.114;13.788;2022-07-18T18:53:03;3.40;;;1.97;;
19671;SDS011;9983;51.114;13.788;2022-07-18T18:58:03;3.15;;;1.65;;
19671;SDS011;9983;51.114;13.788;2022-07-18T19:03:03;3.50;;;2.10;;
19671;SDS011;9983;51.114;13.788;2022-07-18T19:08:04;6.43;;;2.20;;
19671;SDS011;9983;51.114;13.788;2022-07-18T19:13:04;2.17;;;1.95;;
19671;SDS011;9983;51.114;13.788;2022-07-18T19:18:04;1.60;;;1.50;;
19671;SDS011;9983;51.114;13.788;2022-07-18T19:23:05;3.33;;;2.00;;
19671;SDS011;9983;51.114;13.788;2022-07-18T19:28:05;3.17;;;1.70;;
19671;SDS011;9983;51.114;13.788;2022-07-18T19:33:07;2.63;;;2.10;;
19671;SDS011;9983;51.114;13.788;2022-07-18T19:38:07;1.80;;;1.50;;
19671;SDS011;9983;51.114;13.788;2022-07-18T19:43:08;2.33;;;1.43;;
19671;SDS011;9983;51.114;13.788;2022-07-18T19:48:09;1.70;;;1.60;;
19671;SDS011;9983;51.114;13.788;2022-07-18T19:53:09;3.85;;;1.95;;
19671;SDS011;9983;51.114;13.788;2022-07-18T19:58:09;2.72;;;1.80;;
19671;SDS011;9983;51.114;13.788;2022-07-18T20:03:09;4.00;;;1.90;;
19671;SDS011;9983;51.114;13.788;2022-07-18T20:08:10;4.97;;;1.80;;
19671;SDS011;9983;51.114;13.788;2022-07-18T20:13:12;2.90;;;1.70;;
19671;SDS011;9983;51.114;13.788;2022-07-18T20:18:12;2.28;;;1.80;;
19671;SDS011;9983;51.114;13.788;2022-07-18T20:23:12;2.15;;;1.80;;
19671;SDS011;9983;51.114;13.788;2022-07-18T20:28:12;1.75;;;1.65;;
19671;SDS011;9983;51.114;13.788;2022-07-18T20:33:12;2.88;;;1.77;;
19671;SDS011;9983;51.114;13.788;2022-07-18T20:38:13;2.47;;;1.90;;
19671;SDS011;9983;51.114;13.788;2022-07-18T20:43:13;2.75;;;1.80;;
19671;SDS011;9983;51.114;13.788;2022-07-18T20:48:13;3.08;;;1.70;;
19671;SDS011;9983;51.114;13.788;2022-07-18T20:53:13;2.72;;;1.70;;
19671;SDS011;9983;51.114;13.788;2022-07-18T20:58:14;2.40;;;1.92;;
19671;SDS011;9983;51.114;13.788;2022-07-18T21:03:14;3.63;;;1.80;;
19671;SDS011;9983;51.114;13.788;2022-07-18T21:08:14;2.17;;;1.90;;
19671;SDS011;9983;51.114;13.788;2022-07-18T21:13:15;2.83;;;1.73;;
19671;SDS011;9983;51.114;13.788;2022-07-18T21:18:15;2.13;;;1.75;;
19671;SDS011;9983;51.114;13.788;2022-07-18T21:23:15;1.98;;;1.77;;
19671;SDS011;9983;51.114;13.788;2022-07-18T21:28:16;2.42;;;1.77;;
19671;SDS011;9983;51.114;13.788;2022-07-18T21:33:16;3.97;;;1.83;;
19671;SDS011;9983;51.114;13.788;2022-07-18T21:38:16;2.55;;;1.88;;
19671;SDS011;9983;51.114;13.788;2022-07-18T21:43:16;2.97;;;2.10;;
19671;SDS011;9983;51.114;13.788;2022-07-18T21:48:16;5.50;;;1.90;;
19671;SDS011;9983;51.114;13.788;2022-07-18T21:53:16;3.42;;;1.95;;
19671;SDS011;9983;51.114;13.788;2022-07-18T21:58:16;3.88;;;2.20;;
19671;SDS011;9983;51.114;13.788;2022-07-18T22:03:16;3.28;;;2.03;;
19671;SDS011;9983;51.114;13.788;2022-07-18T22:08:17;3.92;;;2.17;;
19671;SDS011;9983;51.114;13.788;2022-07-18T22:13:17;3.90;;;2.20;;
19671;SDS011;9983;51.114;13.788;2022-07-18T22:18:17;1.75;;;1.63;;
19671;SDS011;9983;51.114;13.788;2022-07-18T22:23:17;2.17;;;1.58;;
19671;SDS011;9983;51.114;13.788;2022-07-18T22:28:17;2.10;;;1.55;;
19671;SDS011;9983;51.114;13.788;2022-07-18T22:33:17;1.95;;;1.65;;
19671;SDS011;9983;51.114;13.788;2022-07-18T22:38:18;1.83;;;1.70;;
19671;SDS011;9983;51.114;13.788;2022-07-18T22:43:18;2.75;;;1.77;;
19671;SDS011;9983;51.114;13.788;2022-07-18T22:48:18;2.28;;;2.05;;
19671;SDS011;9983;51.114;13.788;2022-07-18T22:53:18;3.42;;;1.90;;
19671;SDS011;9983;51.114;13.788;2022-07-18T22:58:19;4.00;;;1.60;;
19671;SDS011;9983;51.114;13.788;2022-07-18T23:03:19;2.10;;;1.70;;
19671;SDS011;9983;51.114;13.788;2022-07-18T23:08:20;2.97;;;1.73;;
19671;SDS011;9983;51.114;13.788;2022-07-18T23:13:20;4.20;;;1.88;;
19671;SDS011;9983;51.114;13.788;2022-07-18T23:18:20;2.83;;;2.15;;
19671;SDS011;9983;51.114;13.788;2022-07-18T23:23:20;2.05;;;1.95;;
19671;SDS011;9983;51.114;13.788;2022-07-18T23:28:20;2.42;;;1.98;;
19671;SDS011;9983;51.114;13.788;2022-07-18T23:33:20;5.47;;;2.10;;
19671;SDS011;9983;51.114;13.788;2022-07-18T23:38:21;2.50;;;1.60;;
19671;SDS011;9983;51.114;13.788;2022-07-18T23:43:21;5.22;;;3.67;;
19671;SDS011;9983;51.114;13.788;2022-07-18T23:48:21;5.97;;;4.70;;
19671;SDS011;9983;51.114;13.788;2022-07-18T23:53:21;5.15;;;3.55;;
19671;SDS011;9983;51.114;13.788;2022-07-18T23:58:21;4.13;;;2.83;;
